createdAt,value
2017-06-17T04:56:17.297Z,6.93
2017-06-17T04:58:44.055Z,4.20
2017-06-17T05:01:10.823Z,10.10
2017-06-17T05:03:37.619Z,15.33
2017-06-17T05:06:04.399Z,13.03
2017-06-17T05:08:31.157Z,10.53
2017-06-17T05:10:58.399Z,7.67
2017-06-17T05:13:25.171Z,7.07
2017-06-17T05:15:51.908Z,8.33
2017-06-17T05:18:18.700Z,3.97
2017-06-17T05:20:45.493Z,9.83
2017-06-17T05:23:12.251Z,7.93
2017-06-17T05:25:39.068Z,3.23
2017-06-17T05:28:05.922Z,10.33
2017-06-17T05:30:32.726Z,11.03
2017-06-17T05:32:59.530Z,4.20
2017-06-17T05:35:26.286Z,5.30
2017-06-17T05:37:53.046Z,8.70
2017-06-17T05:40:19.866Z,7.10
2017-06-17T05:42:46.647Z,5.73
2017-06-17T05:45:13.417Z,4.70
2017-06-17T05:47:40.228Z,12.50
2017-06-17T05:50:07.028Z,6.73
2017-06-17T05:52:33.783Z,7.13
2017-06-17T05:55:00.563Z,4.27
2017-06-17T05:57:27.317Z,8.90
2017-06-17T05:59:54.081Z,8.20
2017-06-17T06:02:20.878Z,4.27
2017-06-17T06:04:47.643Z,5.63
2017-06-17T06:07:14.427Z,12.40
2017-06-17T06:09:41.324Z,13.10
2017-06-17T06:12:08.087Z,5.97
2017-06-17T06:14:34.848Z,2.27
2017-06-17T06:17:01.631Z,6.97
2017-06-17T06:19:28.390Z,1.60
2017-06-17T06:21:55.157Z,6.03
2017-06-17T06:24:21.993Z,5.33
2017-06-17T06:26:48.733Z,2.10
2017-06-17T06:29:15.495Z,5.03
2017-06-17T06:31:42.309Z,12.70
2017-06-17T06:34:09.093Z,8.30
2017-06-17T06:36:35.860Z,0.83
2017-06-17T06:39:02.656Z,4.40
2017-06-17T06:41:29.422Z,7.20
2017-06-17T06:43:56.178Z,3.87
2017-06-17T06:46:22.963Z,3.23
2017-06-17T06:48:49.731Z,6.97
2017-06-17T06:51:16.491Z,3.13
2017-06-17T06:53:43.299Z,11.33
2017-06-17T06:56:10.074Z,8.43
2017-06-17T06:58:36.861Z,3.80
2017-06-17T07:01:03.639Z,1.70
2017-06-17T07:03:30.403Z,2.63
2017-06-17T07:05:57.196Z,3.13
2017-06-17T07:08:23.987Z,8.37
2017-06-17T07:10:50.751Z,5.53
2017-06-17T07:13:17.522Z,4.53
2017-06-17T07:15:44.352Z,7.10
2017-06-17T07:18:11.114Z,3.20
2017-06-17T07:20:37.867Z,5.57
2017-06-17T07:23:04.647Z,5.50
2017-06-17T07:25:31.443Z,3.10
2017-06-17T07:27:58.204Z,8.03
2017-06-17T07:30:24.986Z,6.33
2017-06-17T07:32:51.738Z,4.73
2017-06-17T07:35:18.506Z,4.83
2017-06-17T07:37:45.315Z,3.17
2017-06-17T07:40:12.079Z,6.17
2017-06-17T07:42:38.894Z,3.77
2017-06-17T07:45:05.676Z,3.90
2017-06-17T07:47:32.419Z,3.87
2017-06-17T07:49:59.156Z,5.23
2017-06-17T07:52:25.936Z,2.67
2017-06-17T07:54:52.708Z,4.30
2017-06-17T07:57:19.477Z,9.10
2017-06-17T07:59:46.288Z,3.23
2017-06-17T08:02:13.091Z,5.87
2017-06-17T08:04:39.859Z,8.47
2017-06-17T08:07:06.664Z,3.60
2017-06-17T08:09:33.400Z,6.23
2017-06-17T08:12:00.182Z,6.47
2017-06-17T08:14:27.031Z,3.33
2017-06-17T08:16:53.793Z,4.77
2017-06-17T08:19:20.561Z,4.57
2017-06-17T08:21:47.358Z,3.00
2017-06-17T08:24:14.144Z,6.43
2017-06-17T08:26:40.932Z,2.37
2017-06-17T08:29:07.747Z,3.80
2017-06-17T08:31:34.520Z,8.73
2017-06-17T08:34:01.286Z,4.07
2017-06-17T08:36:28.078Z,4.23
2017-06-17T08:38:54.815Z,18.40
2017-06-17T08:41:21.584Z,5.03
2017-06-17T08:43:48.371Z,7.10
2017-06-17T08:46:15.103Z,5.87
2017-06-17T08:48:41.862Z,5.90
2017-06-17T08:51:08.638Z,4.63
2017-06-17T08:53:35.386Z,3.60
2017-06-17T08:56:02.159Z,4.33
2017-06-17T08:58:28.931Z,4.40
2017-06-17T09:00:55.679Z,3.50
2017-06-17T09:03:22.457Z,0.87
2017-06-17T09:05:49.251Z,3.87
2017-06-17T09:08:16.011Z,2.17
2017-06-17T09:10:42.794Z,7.43
2017-06-17T09:13:09.598Z,2.10
2017-06-17T09:15:36.350Z,3.00
2017-06-17T09:18:03.123Z,5.30
2017-06-17T09:20:29.920Z,2.33
2017-06-17T09:22:56.694Z,7.13
2017-06-17T09:25:23.431Z,4.60
2017-06-17T09:27:50.246Z,2.40
2017-06-17T09:30:17.029Z,8.40
2017-06-17T09:32:43.779Z,7.20
2017-06-17T09:35:10.571Z,3.43
2017-06-17T09:37:37.341Z,3.63
2017-06-17T09:40:04.094Z,2.00
2017-06-17T09:42:30.926Z,3.83
2017-06-17T09:44:57.675Z,7.20
2017-06-17T09:47:24.445Z,4.73
2017-06-17T09:49:51.308Z,7.90
2017-06-17T09:52:18.061Z,4.23
2017-06-17T09:54:44.873Z,3.37
2017-06-17T09:57:11.834Z,7.13
2017-06-17T09:59:38.572Z,2.90
2017-06-17T10:02:05.352Z,3.30
2017-06-17T10:04:32.157Z,2.70
2017-06-17T10:06:58.949Z,3.80
2017-06-17T10:09:25.717Z,3.40
2017-06-17T10:11:52.510Z,5.70
2017-06-17T10:14:19.263Z,1.00
2017-06-17T10:16:46.017Z,3.13
2017-06-17T10:19:12.799Z,9.37
2017-06-17T10:21:39.558Z,6.80
2017-06-17T10:24:06.329Z,2.80
2017-06-17T10:26:33.139Z,3.50
2017-06-17T10:28:59.883Z,5.17
2017-06-17T10:31:26.658Z,3.47
2017-06-17T10:33:53.451Z,3.00
2017-06-17T10:36:20.200Z,5.93
2017-06-17T10:38:46.968Z,2.47
2017-06-17T10:41:13.758Z,1.43
2017-06-17T10:43:40.503Z,3.50
2017-06-17T10:46:07.256Z,5.67
2017-06-17T10:48:34.039Z,5.07
2017-06-17T10:51:00.792Z,2.67
2017-06-17T10:53:27.540Z,4.27
2017-06-17T10:55:54.366Z,2.93
2017-06-17T10:58:21.130Z,0.60
2017-06-17T11:00:47.881Z,5.27
2017-06-17T11:03:14.669Z,2.33
2017-06-17T11:05:41.415Z,2.03
2017-06-17T11:08:08.174Z,2.80
2017-06-17T11:10:34.960Z,10.43
2017-06-17T11:13:01.735Z,3.47
2017-06-17T11:15:28.487Z,2.10
2017-06-17T11:17:55.272Z,3.73
2017-06-17T11:20:22.175Z,1.30
2017-06-17T11:22:48.990Z,5.77
2017-06-17T11:25:15.767Z,2.70
2017-06-17T11:27:42.543Z,3.17
2017-06-17T11:30:09.307Z,5.67
2017-06-17T11:32:36.091Z,5.20
2017-06-17T11:35:02.871Z,4.40
2017-06-17T11:37:29.638Z,2.43
2017-06-17T11:39:56.443Z,9.30
2017-06-17T11:42:23.192Z,2.27
2017-06-17T11:44:49.960Z,4.30
2017-06-17T11:47:16.792Z,1.93
2017-06-17T11:49:43.561Z,3.47
2017-06-17T11:52:10.341Z,6.10
2017-06-17T11:54:38.091Z,3.17
2017-06-17T11:57:04.854Z,5.93
2017-06-17T11:59:31.606Z,3.90
2017-06-17T12:01:58.413Z,3.47
2017-06-17T12:04:25.184Z,1.60
2017-06-17T12:06:51.932Z,5.00
2017-06-17T12:09:18.730Z,5.00
2017-06-17T12:11:45.498Z,0.87
2017-06-17T12:14:12.265Z,1.90
2017-06-17T12:16:39.063Z,2.23
2017-06-17T12:19:05.848Z,5.30
2017-06-17T12:21:32.611Z,4.27
2017-06-17T12:23:59.417Z,2.33
2017-06-17T12:26:26.185Z,2.23
2017-06-17T12:28:52.944Z,3.50
2017-06-17T12:31:19.777Z,4.30
2017-06-17T12:33:46.542Z,1.80
2017-06-17T12:36:13.358Z,1.10
2017-06-17T12:38:40.180Z,3.20
2017-06-17T12:41:06.972Z,2.70
2017-06-17T12:43:33.768Z,5.10
2017-06-17T12:46:00.552Z,3.07
2017-06-17T12:48:27.318Z,2.60
2017-06-17T12:50:54.071Z,4.50
2017-06-17T12:53:20.898Z,1.60
2017-06-17T12:55:47.662Z,4.70
2017-06-17T12:58:14.438Z,1.83
2017-06-17T13:00:41.232Z,3.50
2017-06-17T13:03:18.994Z,2.30
2017-06-17T13:05:45.821Z,3.00
2017-06-17T13:08:12.596Z,1.30
2017-06-17T13:10:39.335Z,2.10
2017-06-17T13:13:06.130Z,1.70
2017-06-17T13:15:32.878Z,2.40
2017-06-17T13:17:59.636Z,3.13
2017-06-17T13:20:26.409Z,1.70
2017-06-17T13:22:53.148Z,5.03
2017-06-17T13:25:19.891Z,1.77
2017-06-17T13:27:46.686Z,6.60
2017-06-17T13:30:14.443Z,3.77
2017-06-17T13:32:41.205Z,2.80
2017-06-17T13:35:08.022Z,2.53
2017-06-17T13:37:34.785Z,5.13
2017-06-17T13:40:01.552Z,2.60
2017-06-17T13:42:28.355Z,3.43
2017-06-17T13:44:55.125Z,4.23
2017-06-17T13:47:21.870Z,1.97
2017-06-17T13:49:48.661Z,1.77
2017-06-17T13:52:15.439Z,4.50
2017-06-17T13:54:42.210Z,9.03
2017-06-17T13:57:09.012Z,3.70
2017-06-17T13:59:35.771Z,1.23
2017-06-17T14:02:02.555Z,2.33
2017-06-17T14:04:29.362Z,6.53
2017-06-17T14:06:56.099Z,3.73
2017-06-17T14:09:22.856Z,4.83
2017-06-17T14:11:49.642Z,20.87
2017-06-17T14:14:16.384Z,1.83
2017-06-17T14:16:43.141Z,1.53
2017-06-17T14:19:09.933Z,2.17
2017-06-17T14:21:42.523Z,5.20
2017-06-17T14:24:09.261Z,2.70
2017-06-17T14:26:36.062Z,1.90
2017-06-17T14:29:02.800Z,4.57
2017-06-17T14:31:29.553Z,3.13
2017-06-17T14:33:56.357Z,3.93
2017-06-17T14:36:23.254Z,4.80
2017-06-17T14:38:50.041Z,3.37
2017-06-17T14:41:16.841Z,2.43
2017-06-17T14:43:43.579Z,3.30
2017-06-17T14:46:10.949Z,2.87
2017-06-17T14:48:37.722Z,4.53
2017-06-17T14:51:04.455Z,2.37
2017-06-17T14:53:31.202Z,4.60
2017-06-17T14:55:57.991Z,2.20
2017-06-17T14:58:24.750Z,1.90
2017-06-17T15:00:51.526Z,1.70
2017-06-17T15:03:18.303Z,3.20
2017-06-17T15:05:45.093Z,4.93
2017-06-17T15:08:13.894Z,4.40
2017-06-17T15:10:40.675Z,2.10
2017-06-17T15:13:07.415Z,2.40
2017-06-17T15:15:34.207Z,5.17
2017-06-17T15:18:01.326Z,3.57
2017-06-17T15:20:28.122Z,2.07
2017-06-17T15:22:54.881Z,4.43
2017-06-17T15:25:21.691Z,2.17
2017-06-17T15:27:48.458Z,5.63
2017-06-17T15:30:15.277Z,4.70
2017-06-17T15:32:42.108Z,4.03
2017-06-17T15:35:08.890Z,3.57
2017-06-17T15:37:35.687Z,4.03
2017-06-17T15:40:02.467Z,1.30
2017-06-17T15:42:29.237Z,3.77
2017-06-17T15:44:55.993Z,4.53
2017-06-17T15:47:22.791Z,3.20
2017-06-17T15:49:49.576Z,4.30
2017-06-17T15:52:16.327Z,6.00
2017-06-17T15:54:43.115Z,3.10
2017-06-17T15:57:09.903Z,2.67
2017-06-17T15:59:36.702Z,3.53
2017-06-17T16:02:03.522Z,2.70
2017-06-17T16:04:30.281Z,5.17
2017-06-17T16:06:57.079Z,4.77
2017-06-17T16:09:23.890Z,5.37
2017-06-17T16:11:50.654Z,1.90
2017-06-17T16:14:17.421Z,3.47
2017-06-17T16:16:44.206Z,5.60
2017-06-17T16:19:11.003Z,6.33
2017-06-17T16:21:37.787Z,5.77
2017-06-17T16:24:04.605Z,3.70
2017-06-17T16:26:31.374Z,3.80
2017-06-17T16:28:58.147Z,2.97
2017-06-17T16:31:24.924Z,5.10
2017-06-17T16:33:51.663Z,3.97
2017-06-17T16:36:18.425Z,8.03
2017-06-17T16:38:45.200Z,2.27
2017-06-17T16:41:11.975Z,6.13
2017-06-17T16:43:39.610Z,4.90
2017-06-17T16:46:06.400Z,4.30
2017-06-17T16:48:33.222Z,7.40
2017-06-17T16:50:59.989Z,9.17
2017-06-17T16:53:26.906Z,3.80
2017-06-17T16:55:53.663Z,3.47
2017-06-17T16:58:20.408Z,5.20
2017-06-17T17:00:47.192Z,3.37
2017-06-17T17:03:13.962Z,5.03
2017-06-17T17:05:40.733Z,4.10
2017-06-17T17:08:07.581Z,3.87
2017-06-17T17:10:34.338Z,4.63
2017-06-17T17:13:01.090Z,5.43
2017-06-17T17:15:27.882Z,3.80
2017-06-17T17:17:54.636Z,5.30
2017-06-17T17:20:21.401Z,4.70
2017-06-17T17:22:48.190Z,5.47
2017-06-17T17:25:14.946Z,4.70
2017-06-17T17:27:41.713Z,5.43
2017-06-17T17:30:08.513Z,4.13
2017-06-17T17:32:35.264Z,5.23
2017-06-17T17:35:02.039Z,3.83
2017-06-17T17:37:28.843Z,3.47
2017-06-17T17:39:55.579Z,3.50
2017-06-17T17:42:22.339Z,5.50
2017-06-17T17:44:49.119Z,5.20
2017-06-17T17:47:15.903Z,5.30
2017-06-17T17:49:42.658Z,1.37
2017-06-17T17:52:09.457Z,4.33
2017-06-17T17:54:36.207Z,6.23
2017-06-17T17:57:02.984Z,5.27
2017-06-17T17:59:29.784Z,6.50
2017-06-17T18:01:56.585Z,3.77
2017-06-17T18:04:23.353Z,3.93
2017-06-17T18:06:50.135Z,6.80
2017-06-17T18:09:16.877Z,4.23
2017-06-17T18:11:43.646Z,5.33
2017-06-17T18:14:10.448Z,4.23
2017-06-17T18:16:37.218Z,3.77
2017-06-17T18:19:04.075Z,5.73
2017-06-17T18:21:30.851Z,4.20
2017-06-17T18:23:57.617Z,3.43
2017-06-17T18:26:24.375Z,3.77
2017-06-17T18:28:51.186Z,3.90
2017-06-17T18:31:19.034Z,5.70
2017-06-17T18:33:47.480Z,3.97
2017-06-17T18:36:14.264Z,3.40
2017-06-17T18:38:41.027Z,3.00
2017-06-17T18:41:07.797Z,3.00
2017-06-17T18:43:34.596Z,3.50
2017-06-17T18:46:01.352Z,4.33
2017-06-17T18:48:28.104Z,4.10
2017-06-17T18:50:54.903Z,3.67
2017-06-17T18:53:21.641Z,2.97
2017-06-17T18:55:48.411Z,3.17
2017-06-17T18:58:15.204Z,6.03
2017-06-17T19:00:42.083Z,7.90
2017-06-17T19:03:08.888Z,2.37
2017-06-17T19:05:35.683Z,7.73
2017-06-17T19:08:02.442Z,4.37
2017-06-17T19:10:29.200Z,4.57
2017-06-17T19:12:55.989Z,8.93
2017-06-17T19:15:22.748Z,5.83
2017-06-17T19:17:49.530Z,6.37
2017-06-17T19:20:16.319Z,4.10
2017-06-17T19:22:43.081Z,4.67
2017-06-17T19:25:09.845Z,3.63
2017-06-17T19:27:36.627Z,4.77
2017-06-17T19:30:03.379Z,4.67
2017-06-17T19:32:30.144Z,6.40
2017-06-17T19:34:56.938Z,4.30
2017-06-17T19:37:23.711Z,6.00
2017-06-17T19:39:50.477Z,7.07
2017-06-17T19:42:17.293Z,5.20
2017-06-17T19:44:44.036Z,4.93
2017-06-17T19:47:10.801Z,7.20
2017-06-17T19:49:37.595Z,6.83
2017-06-17T19:52:04.380Z,6.63
2017-06-17T19:54:31.143Z,7.20
2017-06-17T19:56:57.950Z,4.70
2017-06-17T19:59:24.774Z,11.53
2017-06-17T20:01:51.522Z,6.37
2017-06-17T20:04:18.342Z,7.60
2017-06-17T20:06:45.109Z,7.13
2017-06-17T20:09:11.912Z,5.77
2017-06-17T20:11:38.737Z,10.43
2017-06-17T20:14:05.495Z,5.93
2017-06-17T20:16:32.267Z,6.87
2017-06-17T20:18:59.055Z,8.60
2017-06-17T20:21:31.743Z,11.80
2017-06-17T20:23:58.519Z,7.20
2017-06-17T20:26:25.305Z,8.90
2017-06-17T20:28:52.082Z,13.10
2017-06-17T20:31:18.839Z,8.20
2017-06-17T20:33:45.648Z,4.97
2017-06-17T20:36:12.424Z,15.47
2017-06-17T20:38:39.210Z,7.63
2017-06-17T20:41:06.044Z,10.67
2017-06-17T20:43:33.523Z,11.10
2017-06-17T20:46:00.299Z,10.40
2017-06-17T20:48:27.100Z,16.87
2017-06-17T20:50:53.914Z,13.73
2017-06-17T20:53:20.677Z,10.53
2017-06-17T20:55:47.468Z,12.13
2017-06-17T20:58:14.213Z,12.73
2017-06-17T21:00:40.968Z,8.93
2017-06-17T21:03:07.843Z,13.40
2017-06-17T21:05:34.618Z,12.43
2017-06-17T21:08:01.433Z,17.20
2017-06-17T21:10:28.244Z,9.87
2017-06-17T21:12:55.008Z,14.23
2017-06-17T21:15:21.804Z,12.50
2017-06-17T21:17:48.631Z,14.57
2017-06-17T21:20:15.406Z,17.67
2017-06-17T21:22:42.206Z,14.03
2017-06-17T21:25:09.006Z,11.47
2017-06-17T21:27:35.758Z,13.13
2017-06-17T21:30:02.507Z,12.53
2017-06-17T21:32:29.397Z,12.50
2017-06-17T21:34:56.184Z,18.90
2017-06-17T21:37:22.958Z,13.57
2017-06-17T21:39:49.935Z,13.60
2017-06-17T21:42:16.972Z,13.40
2017-06-17T21:44:44.059Z,16.43
2017-06-17T21:47:11.027Z,13.17
2017-06-17T21:49:37.977Z,11.40
2017-06-17T21:52:04.777Z,13.97
2017-06-17T21:54:31.679Z,18.53
2017-06-17T21:56:58.451Z,13.50
2017-06-17T21:59:25.217Z,15.23
2017-06-17T22:01:52.038Z,15.37
2017-06-17T22:04:18.775Z,17.50
2017-06-17T22:06:45.593Z,26.37
2017-06-17T22:09:12.396Z,16.73
2017-06-17T22:11:39.139Z,12.83
2017-06-17T22:14:05.915Z,12.13
2017-06-17T22:16:32.729Z,13.17
2017-06-17T22:18:59.492Z,12.03
2017-06-17T22:21:26.248Z,12.73
